sensor_id;sensor_type;location;lat;lon;timestamp;P1;durP1;ratioP1;P2;durP2;ratioP2
55037;SDS011;40937;53.594;10.034;2022-07-22T00:00:57;17.35;;;16.05;;
55037;SDS011;40937;53.594;10.034;2022-07-22T00:03:23;18.23;;;16.77;;
55037;SDS011;40937;53.594;10.034;2022-07-22T00:05:50;19.45;;;17.77;;
55037;SDS011;40937;53.594;10.034;2022-07-22T00:08:17;20.05;;;18.17;;
55037;SDS011;40937;53.594;10.034;2022-07-22T00:10:45;18.83;;;17.27;;
55037;SDS011;40937;53.594;10.034;2022-07-22T00:13:12;18.65;;;17.10;;
55037;SDS011;40937;53.594;10.034;2022-07-22T00:15:38;18.73;;;17.05;;
55037;SDS011;40937;53.594;10.034;2022-07-22T00:18:05;19.52;;;17.92;;
55037;SDS011;40937;53.594;10.034;2022-07-22T00:20:32;19.00;;;17.33;;
55037;SDS011;40937;53.594;10.034;2022-07-22T00:22:58;17.05;;;15.63;;
55037;SDS011;40937;53.594;10.034;2022-07-22T00:25:25;20.02;;;17.80;;
55037;SDS011;40937;53.594;10.034;2022-07-22T00:27:54;17.83;;;16.23;;
55037;SDS011;40937;53.594;10.034;2022-07-22T00:30:21;22.70;;;19.70;;
55037;SDS011;40937;53.594;10.034;2022-07-22T00:32:48;22.42;;;18.48;;
55037;SDS011;40937;53.594;10.034;2022-07-22T00:35:14;19.58;;;17.52;;
55037;SDS011;40937;53.594;10.034;2022-07-22T00:37:41;20.98;;;18.77;;
55037;SDS011;40937;53.594;10.034;2022-07-22T00:40:10;19.70;;;17.55;;
55037;SDS011;40937;53.594;10.034;2022-07-22T00:42:37;21.23;;;17.98;;
55037;SDS011;40937;53.594;10.034;2022-07-22T00:45:07;18.20;;;16.35;;
55037;SDS011;40937;53.594;10.034;2022-07-22T00:47:34;16.58;;;14.90;;
55037;SDS011;40937;53.594;10.034;2022-07-22T00:50:01;16.95;;;14.32;;
55037;SDS011;40937;53.594;10.034;2022-07-22T00:52:29;14.20;;;12.63;;
55037;SDS011;40937;53.594;10.034;2022-07-22T00:54:57;13.10;;;11.68;;
55037;SDS011;40937;53.594;10.034;2022-07-22T00:57:25;10.50;;;9.63;;
55037;SDS011;40937;53.594;10.034;2022-07-22T00:59:51;9.27;;;8.38;;
55037;SDS011;40937;53.594;10.034;2022-07-22T01:02:19;8.70;;;7.78;;
55037;SDS011;40937;53.594;10.034;2022-07-22T01:04:46;7.85;;;6.13;;
55037;SDS011;40937;53.594;10.034;2022-07-22T01:07:13;6.63;;;5.85;;
55037;SDS011;40937;53.594;10.034;2022-07-22T01:09:41;5.68;;;5.18;;
55037;SDS011;40937;53.594;10.034;2022-07-22T01:12:08;3.92;;;3.63;;
55037;SDS011;40937;53.594;10.034;2022-07-22T01:14:35;4.82;;;3.63;;
55037;SDS011;40937;53.594;10.034;2022-07-22T01:17:02;4.03;;;3.67;;
55037;SDS011;40937;53.594;10.034;2022-07-22T01:19:30;5.90;;;3.45;;
55037;SDS011;40937;53.594;10.034;2022-07-22T01:21:58;2.65;;;2.42;;
55037;SDS011;40937;53.594;10.034;2022-07-22T01:24:25;2.45;;;2.25;;
55037;SDS011;40937;53.594;10.034;2022-07-22T01:26:52;2.80;;;2.03;;
55037;SDS011;40937;53.594;10.034;2022-07-22T01:29:19;4.82;;;3.67;;
55037;SDS011;40937;53.594;10.034;2022-07-22T01:31:46;3.88;;;2.13;;
55037;SDS011;40937;53.594;10.034;2022-07-22T01:34:12;6.00;;;2.10;;
55037;SDS011;40937;53.594;10.034;2022-07-22T01:36:39;6.82;;;1.95;;
55037;SDS011;40937;53.594;10.034;2022-07-22T01:39:07;6.10;;;2.25;;
55037;SDS011;40937;53.594;10.034;2022-07-22T01:41:34;2.13;;;2.00;;
55037;SDS011;40937;53.594;10.034;2022-07-22T01:44:01;5.97;;;2.70;;
55037;SDS011;40937;53.594;10.034;2022-07-22T01:46:28;6.05;;;3.35;;
55037;SDS011;40937;53.594;10.034;2022-07-22T01:48:55;5.20;;;3.38;;
55037;SDS011;40937;53.594;10.034;2022-07-22T01:51:22;4.63;;;3.95;;
55037;SDS011;40937;53.594;10.034;2022-07-22T01:53:49;7.63;;;5.15;;
55037;SDS011;40937;53.594;10.034;2022-07-22T01:56:17;9.32;;;6.53;;
55037;SDS011;40937;53.594;10.034;2022-07-22T01:58:48;7.50;;;6.65;;
55037;SDS011;40937;53.594;10.034;2022-07-22T02:01:19;8.93;;;6.93;;
55037;SDS011;40937;53.594;10.034;2022-07-22T02:03:47;9.25;;;6.90;;
55037;SDS011;40937;53.594;10.034;2022-07-22T02:06:13;12.18;;;8.02;;
55037;SDS011;40937;53.594;10.034;2022-07-22T02:08:40;14.35;;;8.15;;
55037;SDS011;40937;53.594;10.034;2022-07-22T02:11:17;16.77;;;8.20;;
55037;SDS011;40937;53.594;10.034;2022-07-22T02:13:51;8.90;;;6.95;;
55037;SDS011;40937;53.594;10.034;2022-07-22T02:16:19;10.82;;;6.97;;
55037;SDS011;40937;53.594;10.034;2022-07-22T02:18:47;10.63;;;7.38;;
55037;SDS011;40937;53.594;10.034;2022-07-22T02:21:14;10.00;;;6.60;;
55037;SDS011;40937;53.594;10.034;2022-07-22T02:23:41;12.77;;;6.40;;
55037;SDS011;40937;53.594;10.034;2022-07-22T02:26:08;10.98;;;5.95;;
55037;SDS011;40937;53.594;10.034;2022-07-22T02:28:36;10.55;;;5.18;;
55037;SDS011;40937;53.594;10.034;2022-07-22T02:31:03;8.95;;;5.10;;
55037;SDS011;40937;53.594;10.034;2022-07-22T02:33:31;7.63;;;4.25;;
55037;SDS011;40937;53.594;10.034;2022-07-22T02:35:58;7.78;;;4.10;;
55037;SDS011;40937;53.594;10.034;2022-07-22T02:38:25;7.20;;;3.92;;
55037;SDS011;40937;53.594;10.034;2022-07-22T02:40:52;8.55;;;4.20;;
55037;SDS011;40937;53.594;10.034;2022-07-22T02:43:19;9.00;;;4.00;;
55037;SDS011;40937;53.594;10.034;2022-07-22T02:45:47;10.52;;;3.28;;
55037;SDS011;40937;53.594;10.034;2022-07-22T02:48:14;10.45;;;4.30;;
55037;SDS011;40937;53.594;10.034;2022-07-22T02:50:44;7.80;;;3.60;;
55037;SDS011;40937;53.594;10.034;2022-07-22T02:53:12;9.43;;;3.80;;
55037;SDS011;40937;53.594;10.034;2022-07-22T02:55:39;12.18;;;3.28;;
55037;SDS011;40937;53.594;10.034;2022-07-22T02:58:05;7.88;;;3.03;;
55037;SDS011;40937;53.594;10.034;2022-07-22T03:00:33;12.55;;;3.95;;
55037;SDS011;40937;53.594;10.034;2022-07-22T03:03:01;9.57;;;3.53;;
55037;SDS011;40937;53.594;10.034;2022-07-22T03:05:30;12.25;;;3.63;;
55037;SDS011;40937;53.594;10.034;2022-07-22T03:08:13;11.00;;;3.53;;
55037;SDS011;40937;53.594;10.034;2022-07-22T03:10:40;11.55;;;2.90;;
55037;SDS011;40937;53.594;10.034;2022-07-22T03:13:06;13.00;;;3.08;;
55037;SDS011;40937;53.594;10.034;2022-07-22T03:15:33;10.73;;;3.30;;
55037;SDS011;40937;53.594;10.034;2022-07-22T03:18:01;13.52;;;3.10;;
55037;SDS011;40937;53.594;10.034;2022-07-22T03:20:28;11.32;;;2.92;;
55037;SDS011;40937;53.594;10.034;2022-07-22T03:22:55;11.18;;;3.15;;
55037;SDS011;40937;53.594;10.034;2022-07-22T03:25:22;9.20;;;2.88;;
55037;SDS011;40937;53.594;10.034;2022-07-22T03:27:48;11.27;;;2.92;;
55037;SDS011;40937;53.594;10.034;2022-07-22T03:30:15;12.65;;;3.47;;
55037;SDS011;40937;53.594;10.034;2022-07-22T03:32:43;9.30;;;2.58;;
55037;SDS011;40937;53.594;10.034;2022-07-22T03:35:14;8.77;;;2.47;;
55037;SDS011;40937;53.594;10.034;2022-07-22T03:37:44;7.55;;;2.72;;
55037;SDS011;40937;53.594;10.034;2022-07-22T03:40:11;4.93;;;2.50;;
55037;SDS011;40937;53.594;10.034;2022-07-22T03:42:40;10.82;;;2.42;;
55037;SDS011;40937;53.594;10.034;2022-07-22T03:45:07;10.00;;;2.83;;
55037;SDS011;40937;53.594;10.034;2022-07-22T03:47:38;5.35;;;2.53;;
55037;SDS011;40937;53.594;10.034;2022-07-22T03:50:06;8.60;;;2.80;;
55037;SDS011;40937;53.594;10.034;2022-07-22T03:52:35;10.45;;;2.63;;
55037;SDS011;40937;53.594;10.034;2022-07-22T03:55:06;7.18;;;2.60;;
55037;SDS011;40937;53.594;10.034;2022-07-22T03:57:34;8.88;;;2.75;;
55037;SDS011;40937;53.594;10.034;2022-07-22T04:00:14;6.53;;;2.15;;
55037;SDS011;40937;53.594;10.034;2022-07-22T04:02:42;12.15;;;2.83;;
55037;SDS011;40937;53.594;10.034;2022-07-22T04:05:15;6.13;;;2.33;;
55037;SDS011;40937;53.594;10.034;2022-07-22T04:07:44;6.53;;;2.35;;
55037;SDS011;40937;53.594;10.034;2022-07-22T04:10:11;6.60;;;2.22;;
55037;SDS011;40937;53.594;10.034;2022-07-22T04:12:41;7.10;;;2.67;;
55037;SDS011;40937;53.594;10.034;2022-07-22T04:15:16;4.68;;;2.35;;
55037;SDS011;40937;53.594;10.034;2022-07-22T04:17:43;7.35;;;2.60;;
55037;SDS011;40937;53.594;10.034;2022-07-22T04:20:10;8.10;;;2.65;;
55037;SDS011;40937;53.594;10.034;2022-07-22T04:22:58;7.05;;;2.35;;
55037;SDS011;40937;53.594;10.034;2022-07-22T04:25:25;6.85;;;2.65;;
55037;SDS011;40937;53.594;10.034;2022-07-22T04:27:51;6.97;;;2.85;;
55037;SDS011;40937;53.594;10.034;2022-07-22T04:30:18;5.50;;;2.90;;
55037;SDS011;40937;53.594;10.034;2022-07-22T04:32:48;8.60;;;3.03;;
55037;SDS011;40937;53.594;10.034;2022-07-22T04:35:14;7.65;;;2.63;;
55037;SDS011;40937;53.594;10.034;2022-07-22T04:37:51;4.03;;;2.03;;
55037;SDS011;40937;53.594;10.034;2022-07-22T04:40:19;9.35;;;2.55;;
55037;SDS011;40937;53.594;10.034;2022-07-22T04:42:46;10.30;;;3.25;;
55037;SDS011;40937;53.594;10.034;2022-07-22T04:45:13;9.05;;;3.47;;
55037;SDS011;40937;53.594;10.034;2022-07-22T04:47:39;12.15;;;2.75;;
55037;SDS011;40937;53.594;10.034;2022-07-22T04:50:06;7.82;;;2.70;;
55037;SDS011;40937;53.594;10.034;2022-07-22T04:52:35;10.02;;;2.65;;
55037;SDS011;40937;53.594;10.034;2022-07-22T04:55:02;4.88;;;2.40;;
55037;SDS011;40937;53.594;10.034;2022-07-22T04:57:31;7.65;;;2.63;;
55037;SDS011;40937;53.594;10.034;2022-07-22T05:00:00;4.55;;;2.00;;
55037;SDS011;40937;53.594;10.034;2022-07-22T05:02:31;7.13;;;2.03;;
55037;SDS011;40937;53.594;10.034;2022-07-22T05:04:58;6.50;;;2.30;;
55037;SDS011;40937;53.594;10.034;2022-07-22T05:07:25;6.25;;;2.47;;
55037;SDS011;40937;53.594;10.034;2022-07-22T05:09:52;6.55;;;2.10;;
55037;SDS011;40937;53.594;10.034;2022-07-22T05:12:18;7.45;;;2.40;;
55037;SDS011;40937;53.594;10.034;2022-07-22T05:14:46;4.22;;;1.80;;
55037;SDS011;40937;53.594;10.034;2022-07-22T05:17:13;4.82;;;2.50;;
55037;SDS011;40937;53.594;10.034;2022-07-22T05:19:49;5.47;;;2.70;;
55037;SDS011;40937;53.594;10.034;2022-07-22T05:22:16;6.95;;;2.13;;
55037;SDS011;40937;53.594;10.034;2022-07-22T05:24:43;13.75;;;2.60;;
55037;SDS011;40937;53.594;10.034;2022-07-22T05:27:10;6.35;;;2.35;;
55037;SDS011;40937;53.594;10.034;2022-07-22T05:29:37;6.68;;;3.20;;
55037;SDS011;40937;53.594;10.034;2022-07-22T05:32:06;9.07;;;2.85;;
55037;SDS011;40937;53.594;10.034;2022-07-22T05:34:32;12.25;;;2.95;;
55037;SDS011;40937;53.594;10.034;2022-07-22T05:36:59;8.55;;;3.20;;
55037;SDS011;40937;53.594;10.034;2022-07-22T05:39:26;11.00;;;2.50;;
55037;SDS011;40937;53.594;10.034;2022-07-22T05:41:53;5.90;;;2.75;;
55037;SDS011;40937;53.594;10.034;2022-07-22T05:44:19;15.00;;;3.50;;
55037;SDS011;40937;53.594;10.034;2022-07-22T05:46:46;10.05;;;3.63;;
55037;SDS011;40937;53.594;10.034;2022-07-22T05:49:15;7.75;;;3.22;;
55037;SDS011;40937;53.594;10.034;2022-07-22T05:51:52;11.60;;;3.47;;
55037;SDS011;40937;53.594;10.034;2022-07-22T05:54:19;11.75;;;3.28;;
55037;SDS011;40937;53.594;10.034;2022-07-22T05:56:46;8.95;;;2.97;;
55037;SDS011;40937;53.594;10.034;2022-07-22T05:59:13;11.30;;;3.13;;
55037;SDS011;40937;53.594;10.034;2022-07-22T06:01:41;7.53;;;2.65;;
55037;SDS011;40937;53.594;10.034;2022-07-22T06:04:29;15.20;;;3.95;;
55037;SDS011;40937;53.594;10.034;2022-07-22T06:06:58;11.13;;;3.60;;
55037;SDS011;40937;53.594;10.034;2022-07-22T06:09:24;11.18;;;3.25;;
55037;SDS011;40937;53.594;10.034;2022-07-22T06:11:51;8.40;;;2.90;;
55037;SDS011;40937;53.594;10.034;2022-07-22T06:14:18;8.75;;;3.22;;
55037;SDS011;40937;53.594;10.034;2022-07-22T06:16:47;12.98;;;3.10;;
55037;SDS011;40937;53.594;10.034;2022-07-22T06:19:13;12.85;;;3.78;;
55037;SDS011;40937;53.594;10.034;2022-07-22T06:21:41;13.57;;;3.65;;
55037;SDS011;40937;53.594;10.034;2022-07-22T06:24:11;10.32;;;3.50;;
55037;SDS011;40937;53.594;10.034;2022-07-22T06:26:38;9.18;;;3.63;;
55037;SDS011;40937;53.594;10.034;2022-07-22T06:29:04;16.15;;;3.55;;
55037;SDS011;40937;53.594;10.034;2022-07-22T06:31:31;10.90;;;3.80;;
55037;SDS011;40937;53.594;10.034;2022-07-22T06:33:58;9.98;;;3.63;;
55037;SDS011;40937;53.594;10.034;2022-07-22T06:36:36;12.75;;;3.22;;
55037;SDS011;40937;53.594;10.034;2022-07-22T06:39:04;10.70;;;4.13;;
55037;SDS011;40937;53.594;10.034;2022-07-22T06:41:40;12.77;;;4.07;;
55037;SDS011;40937;53.594;10.034;2022-07-22T06:44:22;9.57;;;3.28;;
55037;SDS011;40937;53.594;10.034;2022-07-22T06:47:12;13.00;;;3.42;;
55037;SDS011;40937;53.594;10.034;2022-07-22T06:49:41;15.32;;;3.92;;
55037;SDS011;40937;53.594;10.034;2022-07-22T06:52:07;10.23;;;3.15;;
55037;SDS011;40937;53.594;10.034;2022-07-22T06:54:35;16.63;;;3.53;;
55037;SDS011;40937;53.594;10.034;2022-07-22T06:57:03;13.68;;;3.65;;
55037;SDS011;40937;53.594;10.034;2022-07-22T06:59:32;18.08;;;4.07;;
55037;SDS011;40937;53.594;10.034;2022-07-22T07:02:04;15.73;;;4.13;;
55037;SDS011;40937;53.594;10.034;2022-07-22T07:04:31;18.83;;;4.10;;
55037;SDS011;40937;53.594;10.034;2022-07-22T07:06:57;9.95;;;3.80;;
55037;SDS011;40937;53.594;10.034;2022-07-22T07:09:38;13.70;;;4.13;;
55037;SDS011;40937;53.594;10.034;2022-07-22T07:12:15;12.13;;;3.80;;
55037;SDS011;40937;53.594;10.034;2022-07-22T07:15:11;11.55;;;3.45;;
55037;SDS011;40937;53.594;10.034;2022-07-22T07:17:38;13.02;;;4.32;;
55037;SDS011;40937;53.594;10.034;2022-07-22T07:20:08;11.18;;;3.63;;
55037;SDS011;40937;53.594;10.034;2022-07-22T07:22:36;10.07;;;3.90;;
55037;SDS011;40937;53.594;10.034;2022-07-22T07:25:04;9.52;;;3.22;;
55037;SDS011;40937;53.594;10.034;2022-07-22T07:27:34;16.08;;;3.75;;
55037;SDS011;40937;53.594;10.034;2022-07-22T07:30:04;10.68;;;3.97;;
55037;SDS011;40937;53.594;10.034;2022-07-22T07:32:34;14.43;;;4.07;;
55037;SDS011;40937;53.594;10.034;2022-07-22T07:35:01;14.60;;;3.88;;
55037;SDS011;40937;53.594;10.034;2022-07-22T07:37:27;15.65;;;4.43;;
55037;SDS011;40937;53.594;10.034;2022-07-22T07:39:54;10.65;;;3.42;;
55037;SDS011;40937;53.594;10.034;2022-07-22T07:42:22;18.35;;;4.07;;
55037;SDS011;40937;53.594;10.034;2022-07-22T07:44:49;14.27;;;4.38;;
55037;SDS011;40937;53.594;10.034;2022-07-22T07:47:16;16.52;;;4.63;;
55037;SDS011;40937;53.594;10.034;2022-07-22T07:49:46;16.65;;;4.15;;
55037;SDS011;40937;53.594;10.034;2022-07-22T07:52:13;15.23;;;3.97;;
55037;SDS011;40937;53.594;10.034;2022-07-22T07:54:41;14.45;;;4.18;;
55037;SDS011;40937;53.594;10.034;2022-07-22T07:57:08;8.77;;;3.33;;
55037;SDS011;40937;53.594;10.034;2022-07-22T07:59:38;15.05;;;4.05;;
55037;SDS011;40937;53.594;10.034;2022-07-22T08:02:05;13.00;;;3.75;;
55037;SDS011;40937;53.594;10.034;2022-07-22T08:04:33;12.02;;;4.00;;
55037;SDS011;40937;53.594;10.034;2022-07-22T08:07:02;12.05;;;3.53;;
55037;SDS011;40937;53.594;10.034;2022-07-22T08:09:29;16.00;;;3.70;;
55037;SDS011;40937;53.594;10.034;2022-07-22T08:11:58;10.27;;;3.75;;
55037;SDS011;40937;53.594;10.034;2022-07-22T08:14:47;9.82;;;3.45;;
55037;SDS011;40937;53.594;10.034;2022-07-22T08:17:28;9.73;;;3.53;;
55037;SDS011;40937;53.594;10.034;2022-07-22T08:19:55;16.60;;;3.70;;
55037;SDS011;40937;53.594;10.034;2022-07-22T08:22:22;11.02;;;3.10;;
55037;SDS011;40937;53.594;10.034;2022-07-22T08:24:49;13.82;;;3.55;;
55037;SDS011;40937;53.594;10.034;2022-07-22T08:27:17;9.68;;;3.40;;
55037;SDS011;40937;53.594;10.034;2022-07-22T08:29:45;11.10;;;3.42;;
55037;SDS011;40937;53.594;10.034;2022-07-22T08:32:13;12.88;;;3.75;;
55037;SDS011;40937;53.594;10.034;2022-07-22T08:34:40;11.18;;;3.00;;
55037;SDS011;40937;53.594;10.034;2022-07-22T08:37:10;11.43;;;3.13;;
55037;SDS011;40937;53.594;10.034;2022-07-22T08:39:37;9.52;;;3.08;;
55037;SDS011;40937;53.594;10.034;2022-07-22T08:42:05;8.88;;;3.05;;
55037;SDS011;40937;53.594;10.034;2022-07-22T08:44:32;8.35;;;2.55;;
55037;SDS011;40937;53.594;10.034;2022-07-22T08:46:59;17.33;;;3.30;;
55037;SDS011;40937;53.594;10.034;2022-07-22T08:49:48;9.25;;;2.92;;
55037;SDS011;40937;53.594;10.034;2022-07-22T08:52:27;9.10;;;2.63;;
55037;SDS011;40937;53.594;10.034;2022-07-22T08:54:54;10.35;;;2.97;;
55037;SDS011;40937;53.594;10.034;2022-07-22T08:57:22;10.88;;;2.83;;
55037;SDS011;40937;53.594;10.034;2022-07-22T08:59:49;9.88;;;3.20;;
55037;SDS011;40937;53.594;10.034;2022-07-22T09:02:16;6.75;;;2.35;;
55037;SDS011;40937;53.594;10.034;2022-07-22T09:04:52;6.85;;;3.13;;
55037;SDS011;40937;53.594;10.034;2022-07-22T09:07:24;13.10;;;3.20;;
55037;SDS011;40937;53.594;10.034;2022-07-22T09:09:54;8.25;;;3.25;;
55037;SDS011;40937;53.594;10.034;2022-07-22T09:12:50;8.35;;;3.05;;
55037;SDS011;40937;53.594;10.034;2022-07-22T09:15:38;9.38;;;3.22;;
55037;SDS011;40937;53.594;10.034;2022-07-22T09:18:30;8.20;;;2.70;;
55037;SDS011;40937;53.594;10.034;2022-07-22T09:21:31;13.32;;;2.60;;
55037;SDS011;40937;53.594;10.034;2022-07-22T09:26:53;8.43;;;2.47;;
55037;SDS011;40937;53.594;10.034;2022-07-22T09:29:27;9.70;;;2.67;;
55037;SDS011;40937;53.594;10.034;2022-07-22T09:32:08;9.80;;;3.15;;
55037;SDS011;40937;53.594;10.034;2022-07-22T09:35:01;8.35;;;2.65;;
55037;SDS011;40937;53.594;10.034;2022-07-22T09:37:34;7.25;;;2.60;;
55037;SDS011;40937;53.594;10.034;2022-07-22T09:40:12;11.38;;;3.25;;
55037;SDS011;40937;53.594;10.034;2022-07-22T09:42:47;6.65;;;2.45;;
55037;SDS011;40937;53.594;10.034;2022-07-22T09:45:16;11.73;;;3.33;;
55037;SDS011;40937;53.594;10.034;2022-07-22T09:47:44;10.05;;;3.22;;
55037;SDS011;40937;53.594;10.034;2022-07-22T09:50:31;8.35;;;2.63;;
55037;SDS011;40937;53.594;10.034;2022-07-22T09:53:15;8.20;;;2.67;;
55037;SDS011;40937;53.594;10.034;2022-07-22T09:56:03;8.35;;;2.63;;
55037;SDS011;40937;53.594;10.034;2022-07-22T09:58:32;6.50;;;2.38;;
55037;SDS011;40937;53.594;10.034;2022-07-22T10:01:02;12.95;;;3.25;;
55037;SDS011;40937;53.594;10.034;2022-07-22T10:03:32;8.55;;;2.70;;
55037;SDS011;40937;53.594;10.034;2022-07-22T10:06:02;14.45;;;3.35;;
55037;SDS011;40937;53.594;10.034;2022-07-22T10:08:33;7.85;;;2.50;;
55037;SDS011;40937;53.594;10.034;2022-07-22T10:11:00;5.97;;;1.95;;
55037;SDS011;40937;53.594;10.034;2022-07-22T10:13:29;8.27;;;2.60;;
55037;SDS011;40937;53.594;10.034;2022-07-22T10:15:56;15.38;;;2.63;;
55037;SDS011;40937;53.594;10.034;2022-07-22T10:18:24;8.13;;;2.45;;
55037;SDS011;40937;53.594;10.034;2022-07-22T10:21:02;10.90;;;2.83;;
55037;SDS011;40937;53.594;10.034;2022-07-22T10:23:33;11.45;;;2.63;;
55037;SDS011;40937;53.594;10.034;2022-07-22T10:26:00;8.45;;;2.22;;
55037;SDS011;40937;53.594;10.034;2022-07-22T10:28:30;7.97;;;2.47;;
55037;SDS011;40937;53.594;10.034;2022-07-22T10:31:17;6.47;;;2.42;;
55037;SDS011;40937;53.594;10.034;2022-07-22T10:33:47;8.95;;;2.60;;
55037;SDS011;40937;53.594;10.034;2022-07-22T10:36:19;7.93;;;2.63;;
55037;SDS011;40937;53.594;10.034;2022-07-22T10:39:05;13.18;;;3.03;;
55037;SDS011;40937;53.594;10.034;2022-07-22T10:41:34;9.18;;;2.70;;
55037;SDS011;40937;53.594;10.034;2022-07-22T10:44:02;11.95;;;2.85;;
55037;SDS011;40937;53.594;10.034;2022-07-22T10:49:14;9.73;;;2.53;;
55037;SDS011;40937;53.594;10.034;2022-07-22T10:51:47;8.13;;;2.72;;
55037;SDS011;40937;53.594;10.034;2022-07-22T10:57:44;6.13;;;1.98;;
55037;SDS011;40937;53.594;10.034;2022-07-22T11:00:11;9.25;;;2.88;;
55037;SDS011;40937;53.594;10.034;2022-07-22T11:02:38;10.07;;;2.80;;
55037;SDS011;40937;53.594;10.034;2022-07-22T11:05:06;9.35;;;2.53;;
55037;SDS011;40937;53.594;10.034;2022-07-22T11:07:34;6.03;;;2.05;;
55037;SDS011;40937;53.594;10.034;2022-07-22T11:10:09;7.75;;;2.10;;
55037;SDS011;40937;53.594;10.034;2022-07-22T11:12:37;5.95;;;2.30;;
55037;SDS011;40937;53.594;10.034;2022-07-22T11:15:06;8.43;;;2.60;;
55037;SDS011;40937;53.594;10.034;2022-07-22T11:17:35;11.13;;;2.50;;
55037;SDS011;40937;53.594;10.034;2022-07-22T11:20:02;8.15;;;2.40;;
55037;SDS011;40937;53.594;10.034;2022-07-22T11:22:30;7.78;;;2.50;;
55037;SDS011;40937;53.594;10.034;2022-07-22T11:24:58;7.60;;;2.35;;
55037;SDS011;40937;53.594;10.034;2022-07-22T11:27:26;6.28;;;2.17;;
55037;SDS011;40937;53.594;10.034;2022-07-22T11:29:53;7.75;;;2.53;;
55037;SDS011;40937;53.594;10.034;2022-07-22T11:32:23;8.77;;;2.50;;
55037;SDS011;40937;53.594;10.034;2022-07-22T11:34:53;9.32;;;2.20;;
55037;SDS011;40937;53.594;10.034;2022-07-22T11:37:22;15.20;;;2.38;;
55037;SDS011;40937;53.594;10.034;2022-07-22T11:39:50;6.05;;;2.20;;
55037;SDS011;40937;53.594;10.034;2022-07-22T11:42:16;5.65;;;1.98;;
55037;SDS011;40937;53.594;10.034;2022-07-22T11:44:43;8.50;;;2.35;;
55037;SDS011;40937;53.594;10.034;2022-07-22T11:47:10;9.13;;;2.13;;
55037;SDS011;40937;53.594;10.034;2022-07-22T11:49:39;5.15;;;1.90;;
55037;SDS011;40937;53.594;10.034;2022-07-22T11:52:06;10.00;;;2.78;;
55037;SDS011;40937;53.594;10.034;2022-07-22T11:54:37;12.13;;;2.28;;
55037;SDS011;40937;53.594;10.034;2022-07-22T11:57:04;9.40;;;2.55;;
55037;SDS011;40937;53.594;10.034;2022-07-22T11:59:32;8.15;;;3.78;;
55037;SDS011;40937;53.594;10.034;2022-07-22T12:02:00;6.57;;;2.13;;
55037;SDS011;40937;53.594;10.034;2022-07-22T12:04:27;4.15;;;1.80;;
55037;SDS011;40937;53.594;10.034;2022-07-22T12:06:58;10.68;;;2.20;;
55037;SDS011;40937;53.594;10.034;2022-07-22T12:09:28;6.57;;;2.42;;
55037;SDS011;40937;53.594;10.034;2022-07-22T12:11:59;7.03;;;2.60;;
55037;SDS011;40937;53.594;10.034;2022-07-22T12:14:26;9.02;;;2.22;;
55037;SDS011;40937;53.594;10.034;2022-07-22T12:16:55;7.85;;;2.40;;
55037;SDS011;40937;53.594;10.034;2022-07-22T12:19:24;6.95;;;2.22;;
55037;SDS011;40937;53.594;10.034;2022-07-22T12:21:55;6.88;;;2.35;;
55037;SDS011;40937;53.594;10.034;2022-07-22T12:24:28;6.60;;;2.08;;
55037;SDS011;40937;53.594;10.034;2022-07-22T12:26:57;4.90;;;1.98;;
55037;SDS011;40937;53.594;10.034;2022-07-22T12:29:25;4.60;;;1.75;;
55037;SDS011;40937;53.594;10.034;2022-07-22T12:31:54;5.78;;;2.03;;
55037;SDS011;40937;53.594;10.034;2022-07-22T12:34:34;6.10;;;2.00;;
55037;SDS011;40937;53.594;10.034;2022-07-22T12:37:11;4.78;;;1.92;;
55037;SDS011;40937;53.594;10.034;2022-07-22T12:39:55;6.57;;;2.03;;
55037;SDS011;40937;53.594;10.034;2022-07-22T12:42:24;8.93;;;2.50;;
55037;SDS011;40937;53.594;10.034;2022-07-22T12:44:59;7.70;;;2.25;;
55037;SDS011;40937;53.594;10.034;2022-07-22T12:47:40;6.38;;;1.92;;
55037;SDS011;40937;53.594;10.034;2022-07-22T12:50:15;7.95;;;2.13;;
55037;SDS011;40937;53.594;10.034;2022-07-22T12:52:43;3.63;;;1.57;;
55037;SDS011;40937;53.594;10.034;2022-07-22T12:55:11;4.30;;;1.65;;
55037;SDS011;40937;53.594;10.034;2022-07-22T12:57:38;4.57;;;2.25;;
55037;SDS011;40937;53.594;10.034;2022-07-22T13:00:05;4.28;;;2.05;;
55037;SDS011;40937;53.594;10.034;2022-07-22T13:02:32;7.15;;;2.08;;
55037;SDS011;40937;53.594;10.034;2022-07-22T13:04:59;4.47;;;1.85;;
55037;SDS011;40937;53.594;10.034;2022-07-22T13:07:26;4.90;;;1.48;;
55037;SDS011;40937;53.594;10.034;2022-07-22T13:09:52;4.90;;;1.80;;
55037;SDS011;40937;53.594;10.034;2022-07-22T13:12:20;6.40;;;1.98;;
55037;SDS011;40937;53.594;10.034;2022-07-22T13:14:47;3.15;;;1.70;;
55037;SDS011;40937;53.594;10.034;2022-07-22T13:17:14;4.80;;;1.60;;
55037;SDS011;40937;53.594;10.034;2022-07-22T13:19:41;6.38;;;2.33;;
55037;SDS011;40937;53.594;10.034;2022-07-22T13:22:08;5.10;;;1.58;;
55037;SDS011;40937;53.594;10.034;2022-07-22T13:24:36;5.78;;;2.03;;
55037;SDS011;40937;53.594;10.034;2022-07-22T13:27:03;4.50;;;1.65;;
55037;SDS011;40937;53.594;10.034;2022-07-22T13:29:31;5.82;;;2.00;;
55037;SDS011;40937;53.594;10.034;2022-07-22T13:31:58;3.83;;;1.90;;
55037;SDS011;40937;53.594;10.034;2022-07-22T13:34:24;4.30;;;1.42;;
55037;SDS011;40937;53.594;10.034;2022-07-22T13:36:51;5.80;;;1.92;;
55037;SDS011;40937;53.594;10.034;2022-07-22T13:39:18;5.60;;;1.88;;
55037;SDS011;40937;53.594;10.034;2022-07-22T13:41:44;4.28;;;1.75;;
55037;SDS011;40937;53.594;10.034;2022-07-22T13:44:11;5.55;;;2.03;;
55037;SDS011;40937;53.594;10.034;2022-07-22T13:46:39;3.75;;;1.92;;
55037;SDS011;40937;53.594;10.034;2022-07-22T13:49:06;5.18;;;2.10;;
55037;SDS011;40937;53.594;10.034;2022-07-22T13:51:32;4.22;;;1.75;;
55037;SDS011;40937;53.594;10.034;2022-07-22T13:53:59;4.72;;;1.90;;
55037;SDS011;40937;53.594;10.034;2022-07-22T13:56:26;4.00;;;1.90;;
55037;SDS011;40937;53.594;10.034;2022-07-22T13:58:52;6.85;;;1.90;;
55037;SDS011;40937;53.594;10.034;2022-07-22T14:01:19;4.65;;;1.77;;
55037;SDS011;40937;53.594;10.034;2022-07-22T14:03:48;3.00;;;1.73;;
55037;SDS011;40937;53.594;10.034;2022-07-22T14:06:15;4.65;;;1.88;;
55037;SDS011;40937;53.594;10.034;2022-07-22T14:08:41;3.90;;;1.88;;
55037;SDS011;40937;53.594;10.034;2022-07-22T14:11:08;4.00;;;2.08;;
55037;SDS011;40937;53.594;10.034;2022-07-22T14:13:35;4.75;;;1.92;;
55037;SDS011;40937;53.594;10.034;2022-07-22T14:16:02;3.38;;;1.50;;
55037;SDS011;40937;53.594;10.034;2022-07-22T14:18:43;4.22;;;1.67;;
55037;SDS011;40937;53.594;10.034;2022-07-22T14:21:11;6.00;;;1.58;;
55037;SDS011;40937;53.594;10.034;2022-07-22T14:23:37;4.85;;;1.98;;
55037;SDS011;40937;53.594;10.034;2022-07-22T14:26:04;4.72;;;1.73;;
55037;SDS011;40937;53.594;10.034;2022-07-22T14:28:31;7.47;;;2.00;;
55037;SDS011;40937;53.594;10.034;2022-07-22T14:30:58;4.32;;;1.98;;
55037;SDS011;40937;53.594;10.034;2022-07-22T14:33:24;4.18;;;1.73;;
55037;SDS011;40937;53.594;10.034;2022-07-22T14:35:51;8.20;;;2.10;;
55037;SDS011;40937;53.594;10.034;2022-07-22T14:38:19;4.90;;;1.80;;
55037;SDS011;40937;53.594;10.034;2022-07-22T14:40:46;3.88;;;1.98;;
55037;SDS011;40937;53.594;10.034;2022-07-22T14:43:12;18.33;;;2.10;;
55037;SDS011;40937;53.594;10.034;2022-07-22T14:45:39;5.47;;;1.95;;
55037;SDS011;40937;53.594;10.034;2022-07-22T14:48:06;8.07;;;2.15;;
55037;SDS011;40937;53.594;10.034;2022-07-22T14:50:32;6.00;;;2.03;;